createdAt,value
2023-05-06T00:01:20.447Z,7.89
2023-05-06T00:03:48.131Z,7.86
2023-05-06T00:06:15.531Z,7.83
2023-05-06T00:08:42.365Z,7.80
2023-05-06T00:11:09.172Z,7.78
2023-05-06T00:13:36.066Z,7.73
2023-05-06T00:16:02.841Z,7.70
2023-05-06T00:18:29.716Z,7.66
2023-05-06T00:20:56.825Z,7.65
2023-05-06T00:23:23.629Z,7.65
2023-05-06T00:25:50.595Z,7.64
2023-05-06T00:28:17.430Z,7.65
2023-05-06T00:30:44.193Z,7.65
2023-05-06T00:33:11.012Z,7.66
2023-05-06T00:35:37.847Z,7.68
2023-05-06T00:38:10.947Z,7.68
2023-05-06T00:40:38.052Z,7.68
2023-05-06T00:43:04.937Z,7.67
2023-05-06T00:45:32.331Z,7.68
2023-05-06T00:47:59.433Z,7.68
2023-05-06T00:50:28.478Z,7.68
2023-05-06T00:52:58.545Z,7.68
2023-05-06T00:55:26.420Z,7.68
2023-05-06T00:57:53.917Z,7.68
2023-05-06T01:00:21.689Z,7.68
2023-05-06T01:02:49.323Z,7.67
2023-05-06T01:05:18.508Z,7.68
2023-05-06T01:07:53.390Z,7.69
2023-05-06T01:10:38.962Z,7.69
2023-05-06T01:13:14.388Z,7.68
2023-05-06T01:15:46.148Z,7.67
2023-05-06T01:18:22.842Z,7.63
2023-05-06T01:20:53.134Z,7.59
2023-05-06T01:23:20.309Z,7.57
2023-05-06T01:25:47.808Z,7.54
2023-05-06T01:28:14.706Z,7.50
2023-05-06T01:30:53.804Z,7.48
2023-05-06T01:33:43.542Z,7.47
2023-05-06T01:36:20.156Z,7.45
2023-05-06T01:38:52.608Z,7.43
2023-05-06T01:41:21.549Z,7.40
2023-05-06T01:43:49.472Z,7.36
2023-05-06T01:46:20.215Z,7.31
2023-05-06T01:48:49.863Z,7.25
2023-05-06T01:51:16.695Z,7.19
2023-05-06T01:53:43.466Z,7.13
2023-05-06T01:56:10.306Z,7.07
2023-05-06T01:58:37.615Z,7.01
2023-05-06T02:01:04.367Z,6.97
2023-05-06T02:03:31.342Z,6.93
2023-05-06T02:05:58.230Z,6.89
2023-05-06T02:08:25.025Z,6.84
2023-05-06T02:10:52.252Z,6.78
2023-05-06T02:13:19.774Z,6.74
2023-05-06T02:15:46.704Z,6.69
2023-05-06T02:18:13.595Z,6.66
2023-05-06T02:20:40.338Z,6.63
2023-05-06T02:23:07.093Z,6.59
2023-05-06T02:25:33.863Z,6.55
2023-05-06T02:28:00.656Z,6.50
2023-05-06T02:30:30.821Z,6.46
2023-05-06T02:32:58.321Z,6.42
2023-05-06T02:35:25.097Z,6.37
2023-05-06T02:37:51.885Z,6.33
2023-05-06T02:40:18.734Z,6.30
2023-05-06T02:42:46.213Z,6.26
2023-05-06T02:45:13.154Z,6.22
2023-05-06T02:47:40.688Z,6.19
2023-05-06T02:50:07.697Z,6.15
2023-05-06T02:52:35.217Z,6.12
2023-05-06T02:55:02.797Z,6.08
2023-05-06T02:57:29.594Z,6.04
2023-05-06T02:59:56.590Z,6.02
2023-05-06T03:02:23.387Z,6.02
2023-05-06T03:04:50.250Z,6.02
2023-05-06T03:07:17.380Z,6.02
2023-05-06T03:09:44.206Z,6.04
2023-05-06T03:12:11.950Z,6.08
2023-05-06T03:14:39.118Z,6.10
2023-05-06T03:17:06.064Z,6.12
2023-05-06T03:19:32.845Z,6.12
2023-05-06T03:22:00.132Z,6.14
2023-05-06T03:24:26.904Z,6.15
2023-05-06T03:26:53.663Z,6.19
2023-05-06T03:29:20.558Z,6.21
2023-05-06T03:31:51.363Z,6.24
2023-05-06T03:34:18.249Z,6.29
2023-05-06T03:36:46.025Z,6.33
2023-05-06T03:39:12.805Z,6.36
2023-05-06T03:41:39.879Z,6.40
2023-05-06T03:44:06.604Z,6.44
2023-05-06T03:46:33.415Z,6.51
2023-05-06T03:49:00.998Z,6.59
2023-05-06T03:51:27.795Z,6.65
2023-05-06T03:53:55.028Z,6.71
2023-05-06T03:56:22.810Z,6.77
2023-05-06T03:58:49.617Z,6.81
2023-05-06T04:01:18.240Z,6.86
2023-05-06T04:03:45.150Z,6.90
2023-05-06T04:06:12.246Z,6.94
2023-05-06T04:08:39.076Z,6.97
2023-05-06T04:11:06.987Z,6.99
2023-05-06T04:13:35.115Z,7.02
2023-05-06T04:16:03.080Z,7.08
2023-05-06T04:18:30.824Z,7.15
2023-05-06T04:20:57.577Z,7.25
2023-05-06T04:23:24.323Z,7.37
2023-05-06T04:25:51.148Z,7.50
2023-05-06T04:28:17.918Z,7.62
2023-05-06T04:30:45.886Z,7.74
2023-05-06T04:33:13.184Z,7.87
2023-05-06T04:35:41.196Z,7.96
2023-05-06T04:38:07.996Z,8.04
2023-05-06T04:40:36.689Z,8.11
2023-05-06T04:43:04.913Z,8.15
2023-05-06T04:45:32.702Z,8.16
2023-05-06T04:47:59.512Z,8.18
2023-05-06T04:50:26.480Z,8.21
2023-05-06T04:52:53.265Z,8.23
2023-05-06T04:55:20.254Z,8.26
2023-05-06T04:57:47.024Z,8.33
2023-05-06T05:00:14.758Z,8.39
2023-05-06T05:02:43.007Z,8.48
2023-05-06T05:05:11.103Z,8.61
2023-05-06T05:07:38.050Z,8.75
2023-05-06T05:10:05.841Z,8.92
2023-05-06T05:12:32.651Z,9.10
2023-05-06T05:14:59.414Z,9.43
2023-05-06T05:17:26.242Z,9.97
2023-05-06T05:19:53.025Z,10.49
2023-05-06T05:22:19.748Z,10.80
2023-05-06T05:24:47.131Z,11.05
2023-05-06T05:27:13.921Z,11.16
2023-05-06T05:29:40.770Z,11.16
2023-05-06T05:32:07.666Z,11.08
2023-05-06T05:34:34.449Z,10.95
2023-05-06T05:37:01.224Z,10.82
2023-05-06T05:39:28.313Z,10.70
2023-05-06T05:41:55.082Z,10.65
2023-05-06T05:44:21.914Z,10.69
2023-05-06T05:46:51.129Z,10.82
2023-05-06T05:49:18.028Z,11.55
2023-05-06T05:51:45.012Z,11.64
2023-05-06T05:54:11.784Z,11.60
2023-05-06T05:56:38.530Z,12.32
2023-05-06T05:59:05.841Z,12.97
2023-05-06T06:01:32.646Z,12.82
2023-05-06T06:04:00.164Z,12.55
2023-05-06T06:06:27.269Z,12.27
2023-05-06T06:08:54.076Z,12.04
2023-05-06T06:11:21.725Z,11.86
2023-05-06T06:13:48.492Z,11.72
2023-05-06T06:16:15.357Z,11.59
2023-05-06T06:18:42.160Z,11.48
2023-05-06T06:21:08.930Z,11.42
2023-05-06T06:23:35.905Z,11.43
2023-05-06T06:26:04.120Z,11.59
2023-05-06T06:28:31.596Z,11.82
2023-05-06T06:30:58.399Z,12.06
2023-05-06T06:33:25.269Z,12.28
2023-05-06T06:35:51.994Z,12.46
2023-05-06T06:38:18.893Z,12.63
2023-05-06T06:40:45.930Z,12.86
2023-05-06T06:43:12.731Z,13.13
2023-05-06T06:45:39.618Z,13.44
2023-05-06T06:48:06.489Z,13.74
2023-05-06T06:50:33.465Z,13.98
2023-05-06T06:53:00.893Z,14.02
2023-05-06T06:55:28.256Z,14.01
2023-05-06T06:57:55.026Z,13.94
2023-05-06T07:00:22.000Z,13.79
2023-05-06T07:02:49.693Z,13.63
2023-05-06T07:05:16.574Z,13.54
2023-05-06T07:07:43.355Z,13.52
2023-05-06T07:10:10.839Z,13.55
2023-05-06T07:12:37.726Z,13.65
2023-05-06T07:15:06.961Z,13.71
2023-05-06T07:17:33.928Z,13.72
2023-05-06T07:20:00.940Z,13.72
2023-05-06T07:22:29.389Z,13.71
2023-05-06T07:24:56.294Z,13.70
2023-05-06T07:27:24.205Z,13.68
2023-05-06T07:29:51.291Z,13.65
2023-05-06T07:32:18.102Z,13.58
2023-05-06T07:34:44.872Z,13.54
2023-05-06T07:37:11.724Z,13.56
2023-05-06T07:39:38.625Z,13.61
2023-05-06T07:42:05.650Z,13.68
2023-05-06T07:44:32.471Z,13.75
2023-05-06T07:46:59.832Z,13.86
2023-05-06T07:49:28.838Z,13.98
2023-05-06T07:51:55.888Z,14.13
2023-05-06T07:54:23.153Z,14.28
2023-05-06T07:56:50.154Z,14.43
2023-05-06T07:59:16.936Z,14.59
2023-05-06T08:01:43.714Z,14.73
2023-05-06T08:04:10.534Z,14.82
2023-05-06T08:06:37.334Z,14.88
2023-05-06T08:09:04.346Z,14.91
2023-05-06T08:11:31.069Z,14.95
2023-05-06T08:13:58.557Z,15.03
2023-05-06T08:16:31.071Z,15.12
2023-05-06T08:18:57.901Z,15.24
2023-05-06T08:21:24.670Z,15.31
2023-05-06T08:23:52.118Z,15.32
2023-05-06T08:26:18.914Z,15.37
2023-05-06T08:28:45.781Z,15.41
2023-05-06T08:31:12.615Z,15.47
2023-05-06T08:33:39.327Z,15.52
2023-05-06T08:36:06.350Z,15.55
2023-05-06T08:38:33.149Z,15.58
2023-05-06T08:41:08.074Z,15.65
2023-05-06T08:43:42.269Z,15.83
2023-05-06T08:46:09.875Z,16.01
2023-05-06T08:48:37.596Z,16.12
2023-05-06T08:51:04.777Z,16.20
2023-05-06T08:53:33.702Z,16.27
2023-05-06T08:56:07.881Z,16.39
2023-05-06T08:58:36.054Z,16.51
2023-05-06T09:01:04.308Z,16.66
2023-05-06T09:03:31.896Z,16.74
2023-05-06T09:05:58.895Z,16.75
2023-05-06T09:08:25.906Z,16.80
2023-05-06T09:10:53.091Z,16.86
2023-05-06T09:13:20.055Z,16.99
2023-05-06T09:15:49.208Z,17.14
2023-05-06T09:18:16.931Z,17.27
2023-05-06T09:20:46.562Z,17.42
2023-05-06T09:23:16.056Z,17.57
2023-05-06T09:25:43.462Z,17.62
2023-05-06T09:28:12.339Z,17.69
2023-05-06T09:30:41.368Z,17.79
2023-05-06T09:33:08.851Z,17.88
2023-05-06T09:35:41.064Z,17.99
2023-05-06T09:38:08.985Z,18.00
2023-05-06T09:40:39.649Z,18.00
2023-05-06T09:43:06.928Z,18.07
2023-05-06T09:45:33.967Z,18.15
2023-05-06T09:48:01.236Z,18.23
2023-05-06T09:50:28.884Z,18.35
2023-05-06T09:52:56.723Z,18.48
2023-05-06T09:55:26.996Z,18.57
2023-05-06T09:57:55.643Z,18.71
2023-05-06T10:00:28.350Z,18.83
2023-05-06T10:02:56.175Z,18.88
2023-05-06T10:05:34.685Z,18.93
2023-05-06T10:08:02.287Z,18.97
2023-05-06T10:10:29.921Z,19.00
2023-05-06T10:12:57.124Z,19.06
2023-05-06T10:15:26.323Z,19.13
2023-05-06T10:17:54.089Z,19.19
2023-05-06T10:20:24.358Z,19.25
2023-05-06T10:23:20.660Z,19.29
2023-05-06T10:25:52.096Z,19.31
2023-05-06T10:28:23.907Z,19.30
2023-05-06T10:30:54.271Z,19.31
2023-05-06T10:33:24.412Z,19.33
2023-05-06T10:36:04.191Z,19.33
2023-05-06T10:38:42.556Z,19.31
2023-05-06T10:41:15.139Z,19.26
2023-05-06T10:44:04.501Z,19.18
2023-05-06T10:46:31.794Z,19.04
2023-05-06T10:49:04.766Z,18.91
2023-05-06T10:51:33.243Z,18.78
2023-05-06T10:54:05.939Z,18.65
2023-05-06T10:56:59.602Z,18.55
2023-05-06T10:59:31.581Z,18.41
2023-05-06T11:02:20.286Z,18.28
2023-05-06T11:04:53.213Z,18.17
2023-05-06T11:07:24.400Z,18.01
2023-05-06T11:10:01.713Z,17.88
2023-05-06T11:12:53.000Z,17.82
2023-05-06T11:15:36.327Z,17.75
2023-05-06T11:18:30.031Z,17.70
2023-05-06T11:21:02.883Z,17.60
2023-05-06T11:23:49.718Z,17.50
2023-05-06T11:26:16.908Z,17.39
2023-05-06T11:28:46.235Z,17.31
2023-05-06T11:31:14.809Z,17.21
2023-05-06T11:33:55.248Z,17.12
2023-05-06T11:36:22.160Z,16.99
2023-05-06T11:38:53.285Z,16.82
2023-05-06T11:41:22.192Z,16.65
2023-05-06T11:43:50.381Z,16.50
2023-05-06T11:46:21.517Z,16.39
2023-05-06T11:48:48.925Z,16.33
2023-05-06T11:51:16.320Z,16.30
2023-05-06T11:53:43.115Z,16.26
2023-05-06T11:56:09.921Z,16.24
2023-05-06T11:58:36.686Z,16.20
2023-05-06T12:01:04.734Z,16.14
2023-05-06T12:03:33.554Z,16.08
2023-05-06T12:06:01.343Z,16.05
2023-05-06T12:08:33.906Z,16.01
2023-05-06T12:11:08.579Z,15.96
2023-05-06T12:13:40.908Z,15.88
2023-05-06T12:16:08.652Z,15.80
2023-05-06T12:18:36.361Z,15.74
2023-05-06T12:21:03.817Z,15.67
2023-05-06T12:23:30.697Z,15.59
2023-05-06T12:26:04.332Z,15.53
2023-05-06T12:28:33.161Z,15.46
2023-05-06T12:31:00.954Z,15.39
2023-05-06T12:33:28.047Z,15.32
2023-05-06T12:36:07.639Z,15.27
2023-05-06T12:38:34.284Z,15.20
2023-05-06T12:41:01.040Z,15.07
2023-05-06T12:43:31.534Z,15.02
2023-05-06T12:46:07.411Z,15.01
2023-05-06T12:48:34.666Z,15.00
2023-05-06T12:51:17.008Z,14.99
2023-05-06T12:53:43.748Z,14.99
2023-05-06T12:56:10.481Z,14.97
2023-05-06T12:58:38.273Z,14.93
2023-05-06T13:01:06.485Z,14.87
2023-05-06T13:03:38.391Z,14.82
2023-05-06T13:06:05.924Z,14.76
2023-05-06T13:08:32.942Z,14.68
2023-05-06T13:11:01.804Z,14.60
2023-05-06T13:13:28.860Z,14.52
2023-05-06T13:15:55.992Z,14.45
2023-05-06T13:18:22.868Z,14.44
2023-05-06T13:20:51.049Z,14.39
2023-05-06T13:23:19.721Z,14.36
2023-05-06T13:26:02.917Z,14.32
2023-05-06T13:28:33.339Z,14.30
2023-05-06T13:31:00.397Z,14.28
2023-05-06T13:33:27.420Z,14.28
2023-05-06T13:35:54.321Z,14.31
2023-05-06T13:38:21.436Z,14.34
2023-05-06T13:40:53.193Z,14.38
2023-05-06T13:43:21.211Z,14.40
2023-05-06T13:45:48.015Z,14.43
2023-05-06T13:48:15.400Z,14.45
2023-05-06T13:50:43.594Z,14.47
2023-05-06T13:53:11.296Z,14.48
2023-05-06T13:55:38.981Z,14.49
2023-05-06T13:58:07.098Z,14.49
2023-05-06T14:00:36.261Z,14.51
2023-05-06T14:03:03.601Z,14.53
2023-05-06T14:05:30.780Z,14.53
2023-05-06T14:07:57.699Z,14.55
2023-05-06T14:10:25.042Z,14.55
2023-05-06T14:12:52.040Z,14.52
2023-05-06T14:15:18.965Z,14.49
2023-05-06T14:17:46.083Z,14.46
2023-05-06T14:20:12.919Z,14.44
2023-05-06T14:22:41.540Z,14.42
2023-05-06T14:25:09.542Z,14.40
2023-05-06T14:27:36.768Z,14.38
2023-05-06T14:30:09.448Z,14.37
2023-05-06T14:32:37.577Z,14.36
2023-05-06T14:35:04.993Z,14.35
2023-05-06T14:37:31.830Z,14.35
2023-05-06T14:39:58.528Z,14.35
2023-05-06T14:42:25.497Z,14.37
2023-05-06T14:44:52.255Z,14.39
2023-05-06T14:47:19.055Z,14.42
2023-05-06T14:49:45.989Z,14.46
2023-05-06T14:52:13.034Z,14.50
2023-05-06T14:54:43.058Z,14.55
2023-05-06T14:57:10.926Z,14.56
2023-05-06T14:59:38.806Z,14.58
2023-05-06T15:02:09.208Z,14.59
2023-05-06T15:04:37.368Z,14.60
2023-05-06T15:07:04.665Z,14.61
2023-05-06T15:09:31.562Z,14.60
2023-05-06T15:11:59.014Z,14.61
2023-05-06T15:14:26.085Z,14.61
2023-05-06T15:16:57.521Z,14.62
2023-05-06T15:19:24.830Z,14.64
2023-05-06T15:21:51.664Z,14.64
2023-05-06T15:24:18.678Z,14.63
2023-05-06T15:26:45.618Z,14.62
2023-05-06T15:29:12.960Z,14.62
2023-05-06T15:31:41.283Z,14.63
2023-05-06T15:34:10.782Z,14.65
2023-05-06T15:36:38.842Z,14.66
2023-05-06T15:39:05.835Z,14.68
2023-05-06T15:41:34.359Z,14.73
2023-05-06T15:46:43.593Z,14.88
2023-05-06T15:49:39.531Z,14.92
2023-05-06T15:52:00.499Z,14.96
2023-05-06T15:54:29.017Z,14.96
2023-05-06T15:56:56.585Z,14.96
2023-05-06T15:59:23.940Z,14.94
2023-05-06T16:02:24.522Z,14.92
2023-05-06T16:04:37.978Z,14.90
2023-05-06T16:07:05.243Z,14.88
2023-05-06T16:09:32.055Z,14.84
2023-05-06T16:11:59.265Z,14.82
2023-05-06T16:14:25.999Z,14.79
2023-05-06T16:16:52.750Z,14.78
2023-05-06T16:19:19.935Z,14.76
2023-05-06T16:21:46.859Z,14.75
2023-05-06T16:24:13.994Z,14.73
2023-05-06T16:26:41.689Z,14.72
2023-05-06T16:29:08.625Z,14.70
2023-05-06T16:31:35.540Z,14.68
2023-05-06T16:34:02.736Z,14.65
2023-05-06T16:36:29.576Z,14.61
2023-05-06T16:38:56.539Z,14.57
2023-05-06T16:41:23.813Z,14.53
2023-05-06T16:43:50.949Z,14.48
2023-05-06T16:46:18.057Z,14.45
2023-05-06T16:48:44.990Z,14.44
2023-05-06T16:51:13.809Z,14.44
2023-05-06T16:53:40.844Z,14.43
2023-05-06T16:56:07.950Z,14.40
2023-05-06T16:58:35.240Z,14.38
2023-05-06T17:01:02.022Z,14.35
2023-05-06T17:03:29.120Z,14.31
2023-05-06T17:05:55.907Z,14.27
2023-05-06T17:08:24.518Z,14.23
2023-05-06T17:10:53.681Z,14.18
2023-05-06T17:13:20.600Z,14.13
2023-05-06T17:15:47.352Z,14.09
2023-05-06T17:18:14.396Z,14.04
2023-05-06T17:20:54.475Z,14.00
2023-05-06T17:23:23.931Z,13.95
2023-05-06T17:25:51.632Z,13.91
2023-05-06T17:28:19.047Z,13.87
2023-05-06T17:30:46.803Z,13.83
2023-05-06T17:33:13.690Z,13.78
2023-05-06T17:35:40.503Z,13.72
2023-05-06T17:38:08.089Z,13.68
2023-05-06T17:40:34.934Z,13.62
2023-05-06T17:43:01.849Z,13.56
2023-05-06T17:45:29.746Z,13.51
2023-05-06T17:47:57.093Z,13.44
2023-05-06T17:50:24.506Z,13.39
2023-05-06T17:52:53.698Z,13.34
2023-05-06T17:55:24.244Z,13.29
2023-05-06T17:57:52.857Z,13.22
2023-05-06T18:00:20.038Z,13.16
2023-05-06T18:02:47.200Z,13.13
2023-05-06T18:05:14.327Z,13.11
2023-05-06T18:07:41.327Z,13.08
2023-05-06T18:10:09.016Z,13.02
2023-05-06T18:12:36.776Z,12.96
2023-05-06T18:15:03.911Z,12.88
2023-05-06T18:17:30.819Z,12.81
2023-05-06T18:19:57.885Z,12.75
2023-05-06T18:22:24.826Z,12.67
2023-05-06T18:25:07.457Z,12.60
2023-05-06T18:27:35.008Z,12.55
2023-05-06T18:30:03.189Z,12.54
2023-05-06T18:32:30.005Z,12.52
2023-05-06T18:34:56.797Z,12.51
2023-05-06T18:37:23.796Z,12.50
2023-05-06T18:39:50.651Z,12.49
2023-05-06T18:42:17.603Z,12.47
2023-05-06T18:44:44.596Z,12.45
2023-05-06T18:47:12.008Z,12.42
2023-05-06T18:49:39.177Z,12.38
2023-05-06T18:52:06.436Z,12.34
2023-05-06T18:54:33.522Z,12.29
2023-05-06T18:57:01.446Z,12.24
2023-05-06T18:59:28.407Z,12.19
2023-05-06T19:01:55.301Z,12.15
2023-05-06T19:04:22.314Z,12.11
2023-05-06T19:06:49.923Z,12.08
2023-05-06T19:09:16.902Z,12.06
2023-05-06T19:11:44.122Z,12.06
2023-05-06T19:14:11.138Z,12.05
2023-05-06T19:16:37.923Z,12.04
2023-05-06T19:19:07.503Z,12.02
2023-05-06T19:21:40.285Z,12.01
2023-05-06T19:24:07.277Z,12.00
2023-05-06T19:26:34.242Z,11.98
2023-05-06T19:29:01.245Z,11.97
2023-05-06T19:31:28.236Z,11.98
2023-05-06T19:33:55.334Z,11.99
2023-05-06T19:36:22.549Z,12.02
2023-05-06T19:38:49.438Z,12.03
2023-05-06T19:41:16.410Z,12.03
2023-05-06T19:43:44.534Z,12.03
2023-05-06T19:46:12.327Z,12.03
2023-05-06T19:48:39.713Z,12.05
2023-05-06T19:51:07.569Z,12.06
2023-05-06T19:53:34.751Z,12.08
2023-05-06T19:56:12.747Z,12.10
2023-05-06T19:58:40.200Z,12.11
2023-05-06T20:01:07.099Z,12.12
2023-05-06T20:03:35.768Z,12.14
2023-05-06T20:06:03.481Z,12.14
2023-05-06T20:08:31.575Z,12.15
2023-05-06T20:10:58.674Z,12.16
2023-05-06T20:13:28.380Z,12.17
2023-05-06T20:15:55.107Z,12.15
2023-05-06T20:18:21.975Z,12.14
2023-05-06T20:20:48.971Z,12.14
2023-05-06T20:23:15.766Z,12.13
2023-05-06T20:25:42.915Z,12.12
2023-05-06T20:28:10.129Z,12.11
2023-05-06T20:30:39.161Z,12.10
2023-05-06T20:33:06.087Z,12.09
2023-05-06T20:35:38.357Z,12.08
2023-05-06T20:38:06.262Z,12.07
2023-05-06T20:40:35.823Z,12.07
2023-05-06T20:43:02.676Z,12.06
2023-05-06T20:45:31.165Z,12.05
2023-05-06T20:47:58.545Z,12.04
2023-05-06T20:50:26.098Z,12.04
2023-05-06T20:52:54.564Z,12.04
2023-05-06T20:55:23.665Z,12.02
2023-05-06T20:57:51.461Z,12.02
2023-05-06T21:00:19.198Z,12.01
2023-05-06T21:02:46.351Z,12.00
2023-05-06T21:05:13.868Z,11.99
2023-05-06T21:07:42.961Z,11.99
2023-05-06T21:10:11.244Z,11.98
2023-05-06T21:12:39.396Z,11.97
2023-05-06T21:15:07.001Z,11.96
2023-05-06T21:17:34.085Z,11.95
2023-05-06T21:20:01.434Z,11.94
2023-05-06T21:22:29.031Z,11.92
2023-05-06T21:24:56.348Z,11.91
2023-05-06T21:27:23.392Z,11.91
2023-05-06T21:29:50.370Z,11.89
2023-05-06T21:32:17.436Z,11.86
2023-05-06T21:34:44.222Z,11.84
2023-05-06T21:37:12.314Z,11.82
2023-05-06T21:39:39.089Z,11.78
2023-05-06T21:42:06.027Z,11.73
2023-05-06T21:44:33.021Z,11.69
2023-05-06T21:46:59.975Z,11.64
2023-05-06T21:49:26.860Z,11.62
2023-05-06T21:51:53.751Z,11.59
2023-05-06T21:54:21.238Z,11.57
2023-05-06T21:56:48.145Z,11.55
2023-05-06T21:59:15.075Z,11.53
2023-05-06T22:01:41.922Z,11.53
2023-05-06T22:04:12.996Z,11.51
2023-05-06T22:06:40.695Z,11.50
2023-05-06T22:09:09.881Z,11.50
2023-05-06T22:11:40.660Z,11.50
2023-05-06T22:14:08.034Z,11.48
2023-05-06T22:16:35.806Z,11.46
2023-05-06T22:19:05.704Z,11.45
2023-05-06T22:21:49.346Z,11.44
2023-05-06T22:24:16.994Z,11.43
2023-05-06T22:26:43.975Z,11.42
2023-05-06T22:29:11.020Z,11.39
2023-05-06T22:31:38.385Z,11.38
2023-05-06T22:34:05.395Z,11.36
2023-05-06T22:36:35.098Z,11.35
2023-05-06T22:39:02.179Z,11.33
2023-05-06T22:41:30.722Z,11.32
2023-05-06T22:43:57.630Z,11.30
2023-05-06T22:46:24.451Z,11.29
2023-05-06T22:48:51.957Z,11.27
2023-05-06T22:51:21.242Z,11.27
2023-05-06T22:53:48.229Z,11.25
2023-05-06T22:56:15.224Z,11.25
2023-05-06T22:58:41.975Z,11.24
2023-05-06T23:01:09.015Z,11.23
2023-05-06T23:03:36.359Z,11.23
2023-05-06T23:06:04.702Z,11.22
2023-05-06T23:08:31.831Z,11.22
2023-05-06T23:10:58.683Z,11.22
2023-05-06T23:13:26.797Z,11.22
2023-05-06T23:15:53.880Z,11.21
2023-05-06T23:18:21.852Z,11.21
2023-05-06T23:20:48.894Z,11.21
2023-05-06T23:23:15.804Z,11.20
2023-05-06T23:25:42.762Z,11.20
2023-05-06T23:28:09.664Z,11.20
2023-05-06T23:30:36.648Z,11.20
2023-05-06T23:33:04.243Z,11.19
2023-05-06T23:35:31.159Z,11.20
2023-05-06T23:37:58.110Z,11.20
2023-05-06T23:40:24.953Z,11.20
2023-05-06T23:42:51.890Z,11.19
2023-05-06T23:45:20.043Z,11.18
2023-05-06T23:47:47.021Z,11.17
2023-05-06T23:50:14.395Z,11.17
2023-05-06T23:52:41.604Z,11.16
2023-05-06T23:55:08.881Z,11.16
2023-05-06T23:57:36.028Z,11.16
